KFATKTVL

Guest
Details From KFAT - Fresno Air Terminal
To KTVL - South Lake Tahoe
Flight Number -
Tags generated
Created
Modified
Stats Distance 128 nm / 237 km
Max Altitude 10,900 ft / 3,322 m
Waypoints 3
Social Downloads 0
Likes 0
Share VATSIM

Download

Looking for another format? Having issues loading an existing format? Contact us
Advertisement - Login to hide

Notes

Basic altitude profile: - Ascent Rate: 2500ft/min - Ascent Speed: 250kts - Cruise Altitude: 35000ft - Cruise Speed: 420kts - Descent Rate: 1500ft/min - Descent Speed: 250kts

Route

KFAT COGOL KTVL

ID Type Via Altitude Latitude Longitude Leg Dist Tot Dist Heading (true) Name
O KFAT APT - 0 ft / 0 m 36.77651˚ -119.71897˚ - 0 nm - Fresno Air Terminal
COGOL FIX - 10,900 ft / 3,322 m 37.28475˚ -119.79181˚ 30 nm 30 nm 353° / 353° -
O KTVL APT - 0 ft / 0 m 38.89388˚ -119.99533˚ 97 nm 127 nm 354° / 354° South Lake Tahoe

Altitude Profile

Advertisement - Login to hide

KFAT

Details ICAO KFAT (FAT)
Name Fresno Air Terminal
Region United States
Timezone America/Los_Angeles (UTC-7.0)
Stats Elevation 335 ft / 102 m (AMSL)
Location 36.776514° -119.718966°
Runways 2
Magnetic Variation 12.790° E

METAR

KFAT 250653Z 33012KT 10SM OVC060 17/09 A3001 RMK AO2 SLP158 T01670094

Decode

TAF

KFAT 250533Z 2506/2606 31015KT P6SM SCT070 FM251500 31008KT P6SM -SHRA SCT040 BKN070 FM252100 33005KT P6SM -SHRA SCT025 BKN040 TEMPO 2521/2601 3SM TSRA OVC025CB FM260300 31010KT P6SM SCT025 BKN040

Decode

Departure Runways

ID Width Length Bearing (true) Bearing (mag) Surface Threshold Offset Overrun Length
11L 150 ft / 46 m 9,242 ft / 2,817 m 125.47° 112.68° Asphalt 0 ft / 0 m 1,066 ft / 325 m
11R 150 ft / 46 m 8,010 ft / 2,441 m 125.49° 112.70° Asphalt 0 ft / 0 m 1,001 ft / 305 m
29L 150 ft / 46 m 8,010 ft / 2,441 m 305.50° 292.71° Asphalt 0 ft / 0 m 1,001 ft / 305 m
29R 150 ft / 46 m 9,242 ft / 2,817 m 305.49° 292.70° Asphalt 312 ft / 95 m 850 ft / 259 m

KTVL

Details ICAO KTVL (TVL)
Name South Lake Tahoe
Region United States
Timezone America/Los_Angeles (UTC-7.0)
Stats Elevation 6,264 ft / 1,909 m (AMSL)
Location 38.893882° -119.995335°
Runways 1
Magnetic Variation 13.276° E

METAR

KTVL 250706Z AUTO 00000KT 5SM BR SCT002 OVC014 07/07 A3009 RMK AO2 T00720072

Decode

TAF

TAF KTVL 250520Z 2506/2606 18008KT P6SM FEW035 SCT070 BKN120 FM251000 VRB03KT 5SM -RA BR BKN030 BKN050 FM251500 18006KT 3SM RA BR BKN015 OVC030 FM252200 18006KT P6SM VCSH SCT030 BKN060

Decode

Destination Runways

ID Width Length Bearing (true) Bearing (mag) Surface Threshold Offset Overrun Length
18 150 ft / 46 m 8,556 ft / 2,608 m 192.88° 179.60° Asphalt 0 ft / 0 m 0 ft / 0 m
36 150 ft / 46 m 8,556 ft / 2,608 m 12.88° 359.60° Asphalt 2,037 ft / 621 m 0 ft / 0 m

Approach Navaids

Runway Type Ident Frequency Range Bearing (true) Bearing (mag) Slope Elevation
18 Localiser ITVL 108.90 MHz 18 nm / 33 km 186.00° 172.72° - 6,264 ft / 1,909 m (AMSL)
18 DME ITVL 108.90 MHz 18 nm / 33 km - - - 6,264 ft / 1,909 m (AMSL)